Time;durP1;ratioP1;P1;durP2;ratioP2;P2;SDS_P1;SDS_P2;PMS_P1;PMS_P2;Temp;Humidity;BMP_temperature;BMP_pressure;BME280_temperature;BME280_humidity;BME280_pressure;Samples;Min_cycle;Max_cycle;Signal;HPM_P1;HPM_P2
2022/03/07 00:02:12;;;;;;;11.55;6.55;;;;;;;23.91;10.66;98543.38;5083740;28;20081;-76
2022/03/07 00:04:38;;;;;;;22.50;8.45;;;;;;;23.92;10.51;98544.19;5083709;28;20028;-77
2022/03/07 00:07:05;;;;;;;16.40;8.10;;;;;;;23.68;10.57;98543.28;5082898;28;20435;-76
2022/03/07 00:09:31;;;;;;;13.10;6.82;;;;;;;23.42;10.87;98548.81;5083253;28;20043;-76
2022/03/07 00:11:57;;;;;;;14.05;7.00;;;;;;;22.84;11.26;98547.81;5081387;28;20508;-77
2022/03/07 00:14:23;;;;;;;13.25;6.18;;;;;;;22.57;11.45;98555.19;5079602;28;20496;-76
2022/03/07 00:16:49;;;;;;;16.58;8.13;;;;;;;22.45;11.79;98548.09;5079099;28;20032;-76
2022/03/07 00:19:16;;;;;;;11.50;5.95;;;;;;;22.20;12.01;98549.50;5081569;28;20035;-76
2022/03/07 00:21:42;;;;;;;12.65;6.68;;;;;;;20.78;13.32;98545.63;5061228;28;20098;-76
2022/03/07 00:24:08;;;;;;;14.18;6.93;;;;;;;19.83;14.55;98552.72;5077304;28;20038;-76
2022/03/07 00:26:35;;;;;;;17.73;8.63;;;;;;;18.60;15.58;98550.03;5084231;28;20051;-76
2022/03/07 00:29:02;;;;;;;15.77;8.13;;;;;;;18.06;16.59;98560.28;5085699;28;20071;-76
2022/03/07 00:31:28;;;;;;;15.77;7.75;;;;;;;18.87;16.17;98561.78;5087367;28;20036;-76
2022/03/07 00:33:54;;;;;;;15.82;8.90;;;;;;;18.94;16.04;98549.88;5087940;28;20046;-76
2022/03/07 00:36:21;;;;;;;18.95;9.48;;;;;;;18.98;16.09;98559.84;5085344;28;20044;-76
2022/03/07 00:38:48;;;;;;;18.50;11.05;;;;;;;16.35;18.19;98555.56;5083634;28;20032;-77
2022/03/07 00:41:14;;;;;;;20.15;11.40;;;;;;;16.93;18.00;98553.31;5083947;28;20025;-77
2022/03/07 00:43:41;;;;;;;17.88;10.20;;;;;;;16.71;18.40;98557.72;5085049;28;20060;-77
2022/03/07 00:46:07;;;;;;;19.67;9.75;;;;;;;18.22;16.94;98553.28;5086093;28;20035;-76
2022/03/07 00:48:33;;;;;;;14.00;8.30;;;;;;;19.17;16.05;98555.97;5083374;28;20093;-77
2022/03/07 00:50:59;;;;;;;20.30;8.50;;;;;;;19.73;15.41;98552.66;5085352;28;20119;-77
2022/03/07 00:53:27;;;;;;;18.85;9.35;;;;;;;18.84;16.23;98556.97;5083484;28;20545;-77
2022/03/07 00:55:55;;;;;;;18.23;9.27;;;;;;;16.36;18.22;98555.16;5084271;28;20126;-76
2022/03/07 00:58:22;;;;;;;21.92;11.98;;;;;;;16.32;18.90;98553.50;5081004;28;20020;-77
2022/03/07 01:00:48;;;;;;;19.25;10.75;;;;;;;17.82;17.38;98551.31;5083162;28;20039;-76
2022/03/07 01:03:15;;;;;;;17.45;10.35;;;;;;;16.28;18.92;98553.47;5084523;28;20039;-77
2022/03/07 01:05:44;;;;;;;21.02;12.23;;;;;;;16.60;18.69;98545.69;5085149;28;20036;-76
2022/03/07 01:08:10;;;;;;;18.25;11.10;;;;;;;15.04;20.02;98538.38;5083890;28;20034;-77
2022/03/07 01:10:37;;;;;;;23.35;12.05;;;;;;;16.01;18.94;98545.47;5082107;28;20039;-77
2022/03/07 01:13:05;;;;;;;17.15;9.82;;;;;;;17.12;18.22;98537.34;5077597;28;20447;-77
2022/03/07 01:15:31;;;;;;;20.75;10.63;;;;;;;17.77;17.45;98532.19;5079094;28;20047;-77
2022/03/07 01:17:59;;;;;;;30.52;14.93;;;;;;;16.15;18.55;98538.19;5082621;28;20454;-76
2022/03/07 01:20:27;;;;;;;20.73;10.82;;;;;;;16.38;18.55;98541.75;5082678;28;20396;-76
2022/03/07 01:22:53;;;;;;;19.48;9.85;;;;;;;18.29;16.94;98533.91;5085430;28;20396;-77
2022/03/07 01:25:19;;;;;;;18.52;10.75;;;;;;;20.09;15.21;98531.25;5080841;28;20113;-77
2022/03/07 01:27:45;;;;;;;16.83;8.70;;;;;;;20.42;14.86;98533.72;5083849;28;20568;-76
2022/03/07 01:30:11;;;;;;;18.67;9.52;;;;;;;17.59;16.91;98544.28;5080193;28;20032;-76
2022/03/07 01:32:38;;;;;;;19.23;10.43;;;;;;;16.45;17.95;98544.63;5082790;28;20110;-76
2022/03/07 01:35:06;;;;;;;24.98;12.65;;;;;;;14.16;20.63;98541.81;5085960;28;20032;-77
2022/03/07 01:37:32;;;;;;;20.35;10.32;;;;;;;15.47;19.20;98531.81;5080009;28;20115;-77
2022/03/07 01:39:58;;;;;;;21.67;11.82;;;;;;;13.56;21.06;98537.50;5083297;28;20494;-77
2022/03/07 01:42:24;;;;;;;22.02;12.73;;;;;;;13.79;21.35;98530.22;5080160;28;20107;-76
2022/03/07 01:44:50;;;;;;;22.30;12.75;;;;;;;12.47;22.92;98546.03;5077509;28;20032;-77
2022/03/07 01:47:16;;;;;;;26.63;14.10;;;;;;;12.00;23.48;98536.59;5081550;28;20355;-77
2022/03/07 01:49:42;;;;;;;27.85;14.27;;;;;;;12.00;23.61;98536.59;5081369;28;20040;-77
2022/03/07 01:52:09;;;;;;;29.25;13.98;;;;;;;10.71;25.26;98548.03;5083791;28;20524;-76
2022/03/07 01:54:35;;;;;;;24.15;14.30;;;;;;;10.77;25.30;98543.94;5068811;28;20409;-77
2022/03/07 01:57:02;;;;;;;24.02;13.32;;;;;;;11.87;24.16;98541.31;5084905;28;20070;-77
2022/03/07 01:59:29;;;;;;;23.88;13.57;;;;;;;11.94;23.77;98544.31;5086366;28;20482;-77
2022/03/07 02:01:58;;;;;;;26.67;14.75;;;;;;;11.35;24.69;98540.22;5066796;28;20038;-76
2022/03/07 02:04:24;;;;;;;24.92;13.73;;;;;;;10.23;26.35;98545.72;5086734;28;20032;-77
2022/03/07 02:06:50;;;;;;;24.02;13.38;;;;;;;11.44;25.02;98535.44;5083993;28;20031;-77
2022/03/07 02:09:17;;;;;;;28.58;14.07;;;;;;;12.12;23.64;98539.38;5085150;28;20432;-77
2022/03/07 02:11:43;;;;;;;25.02;14.05;;;;;;;11.02;25.34;98548.44;5085821;28;20093;-77
2022/03/07 02:14:11;;;;;;;25.60;13.13;;;;;;;10.67;25.52;98545.13;5082340;28;20032;-77
2022/03/07 02:16:37;;;;;;;24.23;13.43;;;;;;;10.34;26.11;98538.72;5066110;28;20085;-77
2022/03/07 02:19:04;;;;;;;24.75;13.73;;;;;;;10.99;25.87;98536.16;5083713;28;20062;-77
2022/03/07 02:21:34;;;;;;;23.27;13.25;;;;;;;12.06;24.13;98538.81;5093271;28;20047;-77
2022/03/07 02:24:01;;;;;;;26.02;14.40;;;;;;;12.04;23.87;98534.81;5082235;28;20027;-77
2022/03/07 02:26:27;;;;;;;23.67;13.65;;;;;;;11.26;25.29;98534.81;5084423;28;20064;-77
2022/03/07 02:28:54;;;;;;;26.70;15.15;;;;;;;10.39;26.76;98533.03;5079350;28;20027;-77
2022/03/07 02:31:21;;;;;;;27.00;16.20;;;;;;;9.81;27.74;98532.97;5082747;28;20032;-77
2022/03/07 02:33:48;;;;;;;31.80;15.77;;;;;;;10.60;26.39;98528.38;5083785;28;20028;-77
2022/03/07 02:36:14;;;;;;;25.45;14.45;;;;;;;10.82;25.75;98516.28;5088554;28;20031;-77
2022/03/07 02:38:41;;;;;;;24.77;13.80;;;;;;;11.94;24.42;98522.28;5085199;28;20036;-77
2022/03/07 02:41:07;;;;;;;24.30;13.75;;;;;;;10.93;25.55;98521.03;5082468;28;20440;-77
2022/03/07 02:43:33;;;;;;;25.08;13.13;;;;;;;12.24;23.78;98515.44;5084519;28;20047;-77
2022/03/07 02:46:01;;;;;;;23.63;13.63;;;;;;;12.52;23.11;98511.94;5084498;28;20465;-77
2022/03/07 02:48:27;;;;;;;22.42;13.13;;;;;;;10.93;25.44;98515.53;5091682;28;20035;-77
2022/03/07 02:50:55;;;;;;;23.58;13.15;;;;;;;10.78;25.64;98521.63;5086022;28;20032;-77
2022/03/07 02:53:22;;;;;;;25.10;13.75;;;;;;;11.59;24.78;98513.63;5086503;28;20024;-77
2022/03/07 02:55:48;;;;;;;28.35;13.90;;;;;;;11.37;24.90;98516.75;5084282;28;20036;-77
2022/03/07 02:58:14;;;;;;;21.60;13.18;;;;;;;13.59;21.99;98514.69;5085112;28;20039;-77
2022/03/07 03:00:40;;;;;;;23.63;12.52;;;;;;;12.35;23.18;98513.00;5082583;28;20363;-77
2022/03/07 03:03:06;;;;;;;22.77;12.57;;;;;;;12.95;22.54;98512.09;5087721;28;20032;-77
2022/03/07 03:05:32;;;;;;;23.13;13.65;;;;;;;12.37;23.57;98511.50;5086995;28;20051;-77
2022/03/07 03:07:59;;;;;;;24.33;12.48;;;;;;;12.79;22.79;98506.50;5087727;28;20032;-77
2022/03/07 03:10:25;;;;;;;24.30;13.80;;;;;;;11.80;23.36;98505.31;5083865;28;20107;-77
2022/03/07 03:12:52;;;;;;;21.95;12.05;;;;;;;13.36;21.78;98499.88;5085379;28;20036;-77
2022/03/07 03:15:18;;;;;;;24.27;13.52;;;;;;;12.08;23.47;98502.69;5079011;28;20081;-77
2022/03/07 03:17:45;;;;;;;21.35;12.75;;;;;;;12.13;23.24;98502.47;5087255;28;20555;-77
2022/03/07 03:20:14;;;;;;;20.60;12.02;;;;;;;13.61;21.71;98504.91;5088960;28;20043;-77
2022/03/07 03:22:42;;;;;;;19.50;11.57;;;;;;;16.45;18.52;98500.28;5090316;28;20389;-77
2022/03/07 03:25:10;;;;;;;19.40;10.52;;;;;;;17.06;17.76;98499.22;5090028;28;20067;-77
2022/03/07 03:27:37;;;;;;;19.50;11.63;;;;;;;13.94;20.63;98504.59;5083772;28;20028;-77
2022/03/07 03:30:06;;;;;;;19.75;11.43;;;;;;;13.71;21.23;98509.13;5078805;28;20393;-77
2022/03/07 03:32:32;;;;;;;18.88;10.73;;;;;;;14.72;20.11;98507.28;5083755;28;20109;-77
2022/03/07 03:34:58;;;;;;;18.92;10.65;;;;;;;16.28;18.45;98495.28;5085964;28;20044;-77
2022/03/07 03:37:24;;;;;;;20.77;11.68;;;;;;;15.98;18.56;98497.16;5086043;28;20485;-77
2022/03/07 03:39:51;;;;;;;20.42;10.65;;;;;;;17.73;17.14;98497.25;5082005;28;20165;-77
2022/03/07 03:42:17;;;;;;;16.02;9.52;;;;;;;19.26;15.64;98486.81;5082471;28;20107;-77
2022/03/07 03:44:44;;;;;;;20.15;9.07;;;;;;;20.40;14.59;98489.47;5078666;28;20032;-77
2022/03/07 03:47:10;;;;;;;16.25;10.13;;;;;;;19.14;14.93;98489.94;5078961;28;20103;-77
2022/03/07 03:49:36;;;;;;;16.02;8.80;;;;;;;19.30;15.29;98482.88;5080875;28;20370;-77
2022/03/07 03:52:05;;;;;;;13.90;8.57;;;;;;;19.29;15.24;98491.63;5083395;28;20313;-77
2022/03/07 03:54:31;;;;;;;15.70;8.98;;;;;;;19.16;15.17;98484.81;5070897;28;20074;-77
2022/03/07 03:56:57;;;;;;;16.38;8.57;;;;;;;19.55;14.82;98477.41;5070868;28;20117;-77
2022/03/07 03:59:23;;;;;;;19.70;9.50;;;;;;;19.24;15.05;98492.00;5050621;28;20036;-77
2022/03/07 04:01:49;;;;;;;16.42;9.57;;;;;;;19.18;14.99;98483.22;5066812;28;20495;-77
2022/03/07 04:04:15;;;;;;;12.57;7.43;;;;;;;19.13;15.02;98491.16;5071582;28;20040;-77
2022/03/07 04:06:42;;;;;;;15.07;8.93;;;;;;;19.66;14.45;98477.44;5052917;28;20032;-77
2022/03/07 04:09:19;;;;;;;11.55;7.32;;;;;;;19.70;14.42;98478.22;5070130;28;20036;-77
2022/03/07 04:11:46;;;;;;;15.75;8.38;;;;;;;19.48;14.58;98480.19;5071339;28;20036;-76
2022/03/07 04:14:14;;;;;;;14.73;7.43;;;;;;;18.73;14.88;98491.34;5071061;28;20036;-77
2022/03/07 04:16:40;;;;;;;16.98;8.38;;;;;;;19.68;14.57;98473.06;5067888;28;20168;-77
2022/03/07 04:19:08;;;;;;;13.75;7.60;;;;;;;18.75;14.72;98486.19;5074839;28;20043;-77
2022/03/07 04:21:35;;;;;;;12.75;8.02;;;;;;;17.99;15.05;98477.66;5074024;28;20115;-77
2022/03/07 04:24:02;;;;;;;10.90;7.63;;;;;;;17.66;15.31;98472.19;5076527;28;20119;-77
2022/03/07 04:26:28;;;;;;;15.40;9.20;;;;;;;19.14;14.34;98478.81;5079941;28;20062;-77
2022/03/07 04:28:55;;;;;;;18.05;9.88;;;;;;;19.32;13.77;98480.47;5084036;28;20032;-77
2022/03/07 04:31:22;;;;;;;17.45;9.52;;;;;;;18.89;14.28;98481.50;5062052;28;20434;-77
2022/03/07 04:33:48;;;;;;;20.92;10.32;;;;;;;19.65;13.97;98476.63;5081237;28;20957;-77
2022/03/07 04:36:19;;;;;;;17.02;8.68;;;;;;;20.44;13.40;98469.97;5086412;28;20119;-77
2022/03/07 04:38:46;;;;;;;;;;;;;;;21.08;12.97;98470.63;5084903;28;20036;-77
2022/03/07 04:41:12;;;;;;;16.20;8.68;;;;;;;21.43;12.68;98461.28;5084638;28;20040;-77
2022/03/07 04:43:38;;;;;;;15.80;7.75;;;;;;;21.81;12.20;98465.84;5079134;28;20111;-77
2022/03/07 04:46:06;;;;;;;12.18;7.68;;;;;;;22.02;12.35;98474.13;5082987;28;20032;-77
2022/03/07 04:48:32;;;;;;;14.57;7.85;;;;;;;22.00;11.94;98474.56;5083071;28;20040;-77
2022/03/07 04:50:58;;;;;;;12.65;8.00;;;;;;;21.93;12.05;98459.81;5086632;28;20489;-77
2022/03/07 04:53:24;;;;;;;15.70;7.68;;;;;;;22.18;11.94;98468.81;5082720;28;20038;-77
2022/03/07 04:55:50;;;;;;;14.52;8.52;;;;;;;22.16;11.96;98464.84;5082396;28;20047;-77
2022/03/07 04:58:17;;;;;;;14.00;7.40;;;;;;;22.03;11.96;98470.13;5083742;28;20036;-77
2022/03/07 05:00:43;;;;;;;11.95;7.13;;;;;;;22.23;11.87;98470.38;5085051;28;20057;-77
2022/03/07 05:03:09;;;;;;;14.32;7.68;;;;;;;22.20;11.48;98473.97;5082535;28;20043;-77
2022/03/07 05:05:35;;;;;;;15.05;9.13;;;;;;;21.86;11.68;98473.84;5085522;28;20110;-77
2022/03/07 05:08:01;;;;;;;11.07;6.93;;;;;;;22.06;11.74;98466.50;5085496;28;20051;-76
2022/03/07 05:10:28;;;;;;;12.20;7.15;;;;;;;21.75;11.44;98473.09;5086422;28;20054;-77
2022/03/07 05:12:54;;;;;;;14.70;7.78;;;;;;;21.17;11.59;98469.00;5078679;28;20045;-77
2022/03/07 05:15:20;;;;;;;10.77;6.80;;;;;;;21.00;11.92;98463.44;5084761;28;20374;-77
2022/03/07 05:17:51;;;;;;;16.00;7.53;;;;;;;21.32;11.92;98470.53;5078644;28;20115;-77
2022/03/07 05:20:17;;;;;;;;;;;;;;;21.52;11.28;98482.00;5083102;28;20073;-77
2022/03/07 05:22:44;;;;;;;10.48;6.30;;;;;;;21.68;11.49;98476.69;5084311;28;19963;-77
2022/03/07 05:25:12;;;;;;;11.95;6.65;;;;;;;19.93;12.59;98484.22;5084218;28;20501;-77
2022/03/07 05:27:39;;;;;;;11.27;6.60;;;;;;;20.73;12.39;98490.22;5085568;28;20497;-77
2022/03/07 05:30:07;;;;;;;11.10;6.53;;;;;;;20.99;12.11;98490.56;5084177;28;20062;-77
2022/03/07 05:32:33;;;;;;;11.07;6.47;;;;;;;21.29;11.46;98484.50;5082574;28;20088;-76
2022/03/07 05:34:59;;;;;;;11.35;5.82;;;;;;;21.60;11.49;98483.56;5089668;28;20455;-76
2022/03/07 05:37:26;;;;;;;12.30;6.60;;;;;;;21.86;11.32;98480.25;5087511;28;20020;-77
2022/03/07 05:39:52;;;;;;;13.45;6.47;;;;;;;19.76;12.22;98485.03;5089727;28;20036;-77
2022/03/07 05:42:18;;;;;;;14.02;7.72;;;;;;;20.57;11.61;98485.88;5086826;28;20059;-77
2022/03/07 05:44:45;;;;;;;16.48;7.43;;;;;;;20.21;11.83;98486.28;5089826;28;20048;-77
2022/03/07 05:47:11;;;;;;;12.00;6.18;;;;;;;18.19;12.77;98498.47;5084725;28;20390;-77
2022/03/07 05:49:37;;;;;;;15.75;7.28;;;;;;;17.20;14.20;98497.41;5080313;28;20028;-77
2022/03/07 05:52:05;;;;;;;12.35;7.40;;;;;;;18.03;13.48;98499.91;5085717;28;20383;-77
2022/03/07 05:54:31;;;;;;;14.88;7.88;;;;;;;18.60;13.02;98508.34;5086108;28;20034;-77
2022/03/07 05:56:57;;;;;;;15.55;7.25;;;;;;;19.31;12.33;98497.59;5087427;28;20040;-77
2022/03/07 05:59:23;;;;;;;12.32;7.85;;;;;;;17.68;13.51;98503.94;5081175;28;20442;-77
2022/03/07 06:01:50;;;;;;;12.95;7.70;;;;;;;18.54;13.43;98503.53;5085702;28;20041;-77
2022/03/07 06:04:16;;;;;;;11.93;7.88;;;;;;;19.06;13.03;98491.94;5088989;28;20031;-77
2022/03/07 06:06:42;;;;;;;10.65;6.85;;;;;;;18.98;12.82;98501.41;5080153;28;20501;-77
2022/03/07 06:09:08;;;;;;;14.52;8.70;;;;;;;17.88;13.63;98502.53;5088251;28;21596;-77
2022/03/07 06:11:34;;;;;;;14.05;8.45;;;;;;;18.31;13.69;98517.63;5086547;28;20048;-77
2022/03/07 06:14:00;;;;;;;13.70;7.97;;;;;;;18.12;13.96;98505.94;5088522;28;20103;-77
2022/03/07 06:16:26;;;;;;;17.45;9.52;;;;;;;17.98;13.99;98509.38;5082785;28;20047;-76
2022/03/07 06:18:52;;;;;;;15.23;8.48;;;;;;;15.98;15.89;98518.50;5083653;28;20088;-77
2022/03/07 06:21:18;;;;;;;16.25;10.20;;;;;;;15.30;16.42;98519.19;5085124;28;20037;-78
2022/03/07 06:23:44;;;;;;;22.45;11.25;;;;;;;14.68;16.97;98522.97;5083780;28;20443;-77
2022/03/07 06:26:11;;;;;;;18.73;11.18;;;;;;;16.22;16.21;98521.69;5084839;28;20045;-77
2022/03/07 06:28:37;;;;;;;19.92;11.10;;;;;;;16.63;15.56;98522.78;5083702;28;20028;-77
2022/03/07 06:31:03;;;;;;;21.05;12.35;;;;;;;17.40;14.89;98516.66;5083847;28;20085;-77
2022/03/07 06:33:29;;;;;;;21.15;13.02;;;;;;;17.28;14.95;98510.19;5086635;28;20083;-77
2022/03/07 06:35:55;;;;;;;19.17;11.15;;;;;;;16.71;15.47;98513.38;5090045;28;20027;-77
2022/03/07 06:38:22;;;;;;;19.23;10.75;;;;;;;16.14;16.18;98522.75;5082739;28;20167;-77
2022/03/07 06:40:48;;;;;;;18.40;10.27;;;;;;;15.22;16.79;98525.72;5087341;28;20111;-77
2022/03/07 06:43:14;;;;;;;22.92;14.30;;;;;;;16.22;15.93;98518.13;5086786;28;20028;-77
2022/03/07 06:45:40;;;;;;;23.20;10.85;;;;;;;15.54;16.74;98524.41;5085338;28;20556;-77
2022/03/07 06:48:07;;;;;;;18.88;10.80;;;;;;;14.70;17.18;98536.44;5086237;28;20024;-77
2022/03/07 06:50:33;;;;;;;21.48;11.15;;;;;;;16.58;15.93;98520.31;5086052;28;20074;-77
2022/03/07 06:53:00;;;;;;;19.60;10.75;;;;;;;15.93;16.67;98518.81;5086704;28;20039;-77
2022/03/07 06:55:26;;;;;;;16.65;10.02;;;;;;;15.73;16.64;98521.63;5082079;28;20032;-77
2022/03/07 06:57:53;;;;;;;22.45;10.65;;;;;;;15.63;17.11;98525.00;5088161;28;20527;-76
2022/03/07 07:00:19;;;;;;;18.65;9.98;;;;;;;14.99;18.02;98528.41;5092046;28;20098;-76
2022/03/07 07:02:46;;;;;;;22.38;12.07;;;;;;;13.85;18.67;98532.38;5082794;28;20346;-78
2022/03/07 07:05:14;;;;;;;20.05;10.85;;;;;;;14.44;18.78;98532.31;5086383;28;20127;-77
2022/03/07 07:07:42;;;;;;;16.70;10.05;;;;;;;14.23;18.56;98531.75;5086098;28;20038;-77
2022/03/07 07:10:09;;;;;;;16.42;9.48;;;;;;;16.17;17.49;98524.00;5085264;28;20036;-77
2022/03/07 07:12:36;;;;;;;14.82;9.63;;;;;;;15.71;17.99;98534.22;5081826;28;20417;-77
2022/03/07 07:15:04;;;;;;;20.83;11.35;;;;;;;15.81;17.45;98542.75;5086866;28;20639;-76
2022/03/07 07:17:31;;;;;;;18.27;10.40;;;;;;;15.60;17.76;98542.34;5084571;28;20028;-76
2022/03/07 07:19:57;;;;;;;19.15;9.63;;;;;;;15.47;18.35;98545.63;5086259;28;20028;-76
2022/03/07 07:22:23;;;;;;;17.08;10.65;;;;;;;14.74;18.75;98548.38;5084007;28;20107;-76
2022/03/07 07:24:49;;;;;;;18.20;10.35;;;;;;;15.42;18.43;98549.47;5083098;28;20020;-77
2022/03/07 07:27:15;;;;;;;19.10;11.05;;;;;;;14.34;19.44;98541.13;5089062;28;20482;-76
2022/03/07 07:29:41;;;;;;;16.25;9.10;;;;;;;17.25;16.54;98537.88;5085270;28;20078;-76
2022/03/07 07:32:07;;;;;;;18.17;10.73;;;;;;;15.89;17.75;98533.38;5083567;28;20029;-76
2022/03/07 07:34:34;;;;;;;17.95;10.23;;;;;;;17.74;16.24;98540.47;5085266;28;20040;-76
2022/03/07 07:37:00;;;;;;;15.00;9.10;;;;;;;17.42;16.28;98534.53;5083669;28;20032;-77
2022/03/07 07:39:26;;;;;;;17.02;10.07;;;;;;;16.94;16.89;98543.81;5084898;28;20619;-76
2022/03/07 07:41:52;;;;;;;16.10;8.23;;;;;;;17.16;16.64;98543.72;5081369;28;20108;-77
2022/03/07 07:44:18;;;;;;;16.67;9.55;;;;;;;17.15;16.31;98539.34;5070921;28;20020;-77
2022/03/07 07:46:45;;;;;;;22.35;11.27;;;;;;;17.64;16.14;98539.19;5089652;28;20037;-76
2022/03/07 07:49:11;;;;;;;15.07;9.00;;;;;;;17.27;16.44;98547.44;5085927;28;20024;-76
2022/03/07 07:51:37;;;;;;;15.07;8.65;;;;;;;16.20;17.68;98548.16;5085428;28;20386;-76
2022/03/07 07:54:04;;;;;;;16.30;9.98;;;;;;;14.95;18.56;98549.66;5082109;28;20032;-77
2022/03/07 07:56:30;;;;;;;13.63;8.77;;;;;;;16.52;17.44;98532.91;5087525;28;20048;-76
2022/03/07 07:58:56;;;;;;;14.05;9.13;;;;;;;17.74;16.36;98540.47;5080894;28;20111;-77
2022/03/07 08:01:23;;;;;;;16.85;9.25;;;;;;;18.18;15.89;98549.66;5080448;28;20409;-76
2022/03/07 08:03:49;;;;;;;15.35;8.82;;;;;;;17.42;16.45;98533.72;5087956;28;20039;-77
2022/03/07 08:06:15;;;;;;;19.35;8.32;;;;;;;17.32;16.37;98537.97;5082812;28;20107;-77
2022/03/07 08:08:41;;;;;;;17.55;9.50;;;;;;;17.97;16.35;98538.34;5082652;28;20043;-77
2022/03/07 08:11:07;;;;;;;18.08;8.75;;;;;;;17.75;16.24;98539.31;5079955;28;20481;-77
2022/03/07 08:13:34;;;;;;;18.80;10.68;;;;;;;17.49;16.89;98539.38;5081914;28;20024;-77
2022/03/07 08:16:00;;;;;;;14.88;9.45;;;;;;;16.64;17.06;98554.84;5083761;28;20375;-77
2022/03/07 08:18:26;;;;;;;16.23;9.43;;;;;;;16.36;17.62;98546.09;5084361;28;20044;-77
2022/03/07 08:20:52;;;;;;;16.10;9.20;;;;;;;17.41;16.57;98532.16;5084658;28;20578;-77
2022/03/07 08:23:18;;;;;;;14.70;9.50;;;;;;;17.91;16.17;98531.53;5089557;28;20040;-77
2022/03/07 08:25:44;;;;;;;17.08;9.25;;;;;;;17.75;16.25;98539.31;5080676;28;20041;-77
2022/03/07 08:28:12;;;;;;;15.13;8.95;;;;;;;17.85;16.80;98533.06;5085947;28;20481;-77
2022/03/07 08:30:38;;;;;;;12.75;7.45;;;;;;;18.81;15.52;98526.38;5081234;28;20023;-77
2022/03/07 08:33:04;;;;;;;15.32;8.85;;;;;;;19.51;15.26;98525.94;5079646;28;20036;-77
2022/03/07 08:35:31;;;;;;;13.73;7.32;;;;;;;18.45;15.20;98523.34;5084463;28;20066;-77
2022/03/07 08:37:57;;;;;;;17.05;9.50;;;;;;;17.11;17.02;98537.69;5083680;28;20478;-77
2022/03/07 08:40:23;;;;;;;13.68;8.45;;;;;;;16.12;17.79;98529.84;5089159;28;20161;-77
2022/03/07 08:42:50;;;;;;;14.18;9.00;;;;;;;14.54;19.56;98540.03;5081860;28;20085;-77
2022/03/07 08:45:16;;;;;;;13.27;8.15;;;;;;;16.47;17.58;98531.22;5084843;28;20056;-77
2022/03/07 08:47:42;;;;;;;20.17;9.95;;;;;;;16.33;17.94;98530.19;5074287;28;20042;-77
2022/03/07 08:50:11;;;;;;;14.75;9.13;;;;;;;17.15;17.05;98531.03;5089366;28;20040;-77
2022/03/07 08:52:38;;;;;;;15.25;8.50;;;;;;;16.98;17.12;98531.59;5079041;28;20021;-77
2022/03/07 08:55:06;;;;;;;14.38;7.78;;;;;;;17.34;16.93;98523.75;5082908;28;20497;-77
2022/03/07 08:57:32;;;;;;;15.73;7.85;;;;;;;16.95;17.02;98524.03;5085004;28;20036;-77
2022/03/07 08:59:58;;;;;;;13.00;7.05;;;;;;;16.84;17.55;98531.41;5085044;28;20423;-77
2022/03/07 09:02:24;;;;;;;12.30;7.22;;;;;;;18.11;16.29;98519.03;5079162;28;20041;-77
2022/03/07 09:04:50;;;;;;;12.95;8.25;;;;;;;17.83;16.29;98514.00;5094481;28;20070;-77
2022/03/07 09:07:16;;;;;;;14.10;8.18;;;;;;;18.21;15.70;98514.75;5069719;28;20035;-77
2022/03/07 09:09:43;;;;;;;12.20;7.07;;;;;;;18.24;15.53;98512.00;5090819;28;20035;-77
2022/03/07 09:12:09;;;;;;;14.52;7.93;;;;;;;18.50;15.98;98520.19;5084479;28;20031;-77
2022/03/07 09:14:36;;;;;;;21.52;11.32;;;;;;;19.48;15.08;98510.00;5085450;28;20044;-77
2022/03/07 09:17:02;;;;;;;21.90;11.68;;;;;;;18.57;16.02;98523.03;5090238;28;20474;-77
2022/03/07 09:19:28;;;;;;;20.10;11.52;;;;;;;19.49;15.29;98511.59;5093474;28;20485;-77
2022/03/07 09:21:55;;;;;;;17.30;10.77;;;;;;;19.87;14.94;98508.13;5093845;28;20028;-77
2022/03/07 09:24:22;;;;;;;23.65;12.52;;;;;;;20.21;14.65;98511.38;5084182;28;20376;-77
2022/03/07 09:26:48;;;;;;;20.75;12.25;;;;;;;20.09;14.39;98500.59;5090122;28;20044;-77
2022/03/07 09:29:14;;;;;;;15.88;9.60;;;;;;;18.75;15.78;98509.22;5085306;28;20033;-77
2022/03/07 09:31:41;;;;;;;17.88;11.18;;;;;;;19.61;15.14;98517.63;5084541;28;20024;-77
2022/03/07 09:34:08;;;;;;;17.70;10.00;;;;;;;20.98;14.88;98518.91;5092301;28;20073;-77
2022/03/07 09:36:36;;;;;;;15.27;9.02;;;;;;;18.24;16.50;98514.78;5083368;28;20028;-77
2022/03/07 09:39:03;;;;;;;20.38;11.77;;;;;;;19.29;15.56;98517.47;5088027;28;20037;-77
2022/03/07 09:41:29;;;;;;;18.42;12.02;;;;;;;19.78;14.94;98524.44;5082707;28;20444;-77
2022/03/07 09:43:55;;;;;;;19.10;11.20;;;;;;;19.30;15.74;98519.06;5085732;28;20126;-77
2022/03/07 09:46:22;;;;;;;20.08;11.65;;;;;;;19.64;15.48;98516.84;5089442;28;20020;-77
2022/03/07 09:48:48;;;;;;;16.38;9.80;;;;;;;20.36;14.56;98518.56;5087528;28;20033;-77
2022/03/07 09:51:14;;;;;;;18.40;10.88;;;;;;;19.22;15.65;98525.81;5089305;28;20043;-77
2022/03/07 09:53:41;;;;;;;13.70;8.07;;;;;;;18.28;15.37;98521.16;5087125;28;20115;-77
2022/03/07 09:56:07;;;;;;;14.00;7.65;;;;;;;17.67;15.57;98523.75;5089046;28;20027;-77
2022/03/07 09:58:33;;;;;;;13.52;7.63;;;;;;;20.10;15.19;98510.53;5085337;28;20097;-77
2022/03/07 10:01:08;;;;;;;15.93;9.40;;;;;;;18.19;16.07;98517.91;5087320;28;20029;-77
2022/03/07 10:03:34;;;;;;;16.40;10.10;;;;;;;16.54;17.56;98516.69;5088033;28;20393;-77
2022/03/07 10:06:00;;;;;;;11.40;7.93;;;;;;;17.32;17.03;98512.22;5067970;28;20055;-77
2022/03/07 10:08:29;;;;;;;16.75;10.27;;;;;;;18.98;15.53;98528.44;5083538;28;20047;-77
2022/03/07 10:10:56;;;;;;;13.90;8.70;;;;;;;16.55;17.33;98527.41;5087324;28;20029;-77
2022/03/07 10:13:24;;;;;;;15.98;9.77;;;;;;;17.28;16.62;98514.94;5082785;28;20119;-77
2022/03/07 10:16:00;;;;;;;18.85;10.63;;;;;;;15.86;17.42;98528.59;5090625;28;20040;-77
2022/03/07 10:18:28;;;;;;;14.68;8.05;;;;;;;16.67;17.47;98525.59;5083732;28;20029;-77
2022/03/07 10:20:57;;;;;;;14.52;8.52;;;;;;;18.05;15.88;98528.91;5089703;28;20036;-77
2022/03/07 10:23:27;;;;;;;14.10;8.38;;;;;;;17.63;15.56;98520.13;5090665;28;20092;-78
2022/03/07 10:26:05;;;;;;;12.90;6.15;;;;;;;19.59;14.17;98520.00;5083114;28;20571;-77
2022/03/07 10:28:38;;;;;;;14.43;7.57;;;;;;;18.80;14.99;98519.19;5085107;28;20055;-77
2022/03/07 10:31:18;;;;;;;10.88;7.55;;;;;;;19.24;14.44;98519.84;5085082;28;20024;-77
2022/03/07 10:33:45;;;;;;;11.65;6.55;;;;;;;18.14;15.77;98518.25;5085815;28;20028;-77
2022/03/07 10:36:14;;;;;;;9.90;5.93;;;;;;;19.29;14.50;98514.69;5089062;28;20035;-77
2022/03/07 10:38:42;;;;;;;10.65;6.28;;;;;;;19.93;13.80;98507.34;5088847;28;20020;-77
2022/03/07 10:41:08;;;;;;;9.38;6.20;;;;;;;17.48;16.14;98521.13;5094849;28;20508;-77
2022/03/07 10:43:44;;;;;;;11.88;6.10;;;;;;;20.15;13.85;98496.22;5084937;28;20413;-77
2022/03/07 10:46:10;;;;;;;9.18;5.43;;;;;;;20.18;13.40;98509.38;5085396;28;20032;-77
2022/03/07 10:48:41;;;;;;;10.95;5.35;;;;;;;20.42;13.25;98501.00;5090231;28;20035;-77
2022/03/07 10:51:17;;;;;;;9.07;5.72;;;;;;;20.19;13.61;98508.16;5090454;28;20093;-77
2022/03/07 10:53:45;;;;;;;10.55;5.85;;;;;;;19.35;14.76;98520.66;5087153;28;20071;-77
2022/03/07 10:56:14;;;;;;;10.27;5.72;;;;;;;18.67;15.34;98515.91;5084601;28;20132;-77
2022/03/07 10:58:53;;;;;;;7.00;5.40;;;;;;;18.92;14.93;98513.31;5083168;28;20058;-77
2022/03/07 11:01:34;;;;;;;7.38;5.45;;;;;;;19.38;14.97;98508.78;5083323;28;20099;-77
2022/03/07 11:04:00;;;;;;;9.32;6.15;;;;;;;18.67;15.42;98504.03;5081198;28;20026;-77
2022/03/07 11:06:27;;;;;;;10.00;6.07;;;;;;;19.78;14.14;98494.59;5082463;28;20027;-77
2022/03/07 11:08:55;;;;;;;12.98;6.93;;;;;;;15.34;18.03;98510.94;5086181;28;20032;-77
2022/03/07 11:11:22;;;;;;;9.00;5.57;;;;;;;15.83;18.23;98501.66;5087737;28;20104;-77
2022/03/07 11:13:53;;;;;;;9.40;6.03;;;;;;;16.76;17.09;98501.16;5088057;28;20032;-77
2022/03/07 11:16:21;;;;;;;14.35;6.50;;;;;;;18.84;15.65;98497.75;5085353;28;20517;-77
2022/03/07 11:18:54;;;;;;;11.82;5.35;;;;;;;17.62;16.23;98504.66;5084599;28;20071;-77
2022/03/07 11:21:22;;;;;;;9.02;5.88;;;;;;;18.28;16.01;98507.28;5073655;28;20466;-77